Time;durP1;ratioP1;P1;durP2;ratioP2;P2;SDS_P1;SDS_P2;PMS_P1;PMS_P2;Temp;Humidity;BMP_temperature;BMP_pressure;BME280_temperature;BME280_humidity;BME280_pressure;Samples;Min_cycle;Max_cycle;Signal;HPM_P1;HPM_P2
2022/05/21 00:00:45;;;;;;;4.17;3.80;;;;;;;;;;5095018;28;20650;-56
2022/05/21 00:03:11;;;;;;;3.83;3.50;;;;;;;;;;5090849;28;20278;-56
2022/05/21 00:05:38;;;;;;;4.10;3.80;;;;;;;;;;5108306;28;20608;-56
2022/05/21 00:08:11;;;;;;;4.87;3.50;;;;;;;;;;5095630;28;20676;-56
2022/05/21 00:10:38;;;;;;;3.83;3.53;;;;;;;;;;5091173;28;20705;-56
2022/05/21 00:13:05;;;;;;;4.10;3.77;;;;;;;;;;5091664;28;20207;-56
2022/05/21 00:15:32;;;;;;;5.10;4.30;;;;;;;;;;5103376;28;20261;-56
2022/05/21 00:17:59;;;;;;;4.73;3.93;;;;;;;;;;5091080;28;20460;-56
2022/05/21 00:23:11;;;;;;;4.20;3.87;;;;;;;;;;5099104;28;20380;-56
2022/05/21 00:25:38;;;;;;;5.07;4.57;;;;;;;;;;5102503;28;20655;-56
2022/05/21 00:28:04;;;;;;;4.10;3.77;;;;;;;;;;5097939;27;20249;-56
2022/05/21 00:30:30;;;;;;;5.27;4.87;;;;;;;;;;5095449;28;20286;-56
2022/05/21 00:32:57;;;;;;;12.13;4.60;;;;;;;;;;5093347;28;20179;-56
2022/05/21 00:35:23;;;;;;;5.47;4.00;;;;;;;;;;5098853;28;20181;-56
2022/05/21 00:37:49;;;;;;;5.00;4.40;;;;;;;;;;5097366;28;20642;-56
2022/05/21 00:40:15;;;;;;;6.23;4.70;;;;;;;;;;5093907;28;20551;-56
2022/05/21 00:42:47;;;;;;;4.43;4.03;;;;;;;;;;5092438;28;20199;-56
2022/05/21 00:45:13;;;;;;;4.80;4.27;;;;;;;;;;5103288;27;20187;-55
2022/05/21 00:47:40;;;;;;;4.60;4.10;;;;;;;;;;5090869;27;20277;-55
2022/05/21 00:50:07;;;;;;;4.33;3.93;;;;;;;;;;5100352;28;20286;-55
2022/05/21 00:52:34;;;;;;;4.30;4.00;;;;;;;;;;5086514;28;20187;-55
2022/05/21 00:55:02;;;;;;;5.47;4.70;;;;;;;;;;5097951;28;20236;-56
2022/05/21 00:57:34;;;;;;;5.07;4.67;;;;;;;;;;5094081;28;20641;-56
2022/05/21 01:00:12;;;;;;;4.50;4.10;;;;;;;;;;5097096;27;20528;-56
2022/05/21 01:02:57;;;;;;;4.83;4.43;;;;;;;;;;5104881;28;20175;-56
2022/05/21 01:05:25;;;;;;;5.90;4.47;;;;;;;;;;5099591;28;20171;-56
2022/05/21 01:07:53;;;;;;;4.73;4.33;;;;;;;;;;5104530;28;20230;-56
2022/05/21 01:10:20;;;;;;;4.43;4.07;;;;;;;;;;5097164;28;20175;-56
2022/05/21 01:12:48;;;;;;;4.40;4.00;;;;;;;;;;5096810;28;20559;-56
2022/05/21 01:15:17;;;;;;;4.67;3.97;;;;;;;;;;5101713;28;20273;-58
2022/05/21 01:17:43;;;;;;;4.17;3.77;;;;;;;;;;5100388;28;20179;-56
2022/05/21 01:20:11;;;;;;;4.23;3.93;;;;;;;;;;5099759;28;20588;-58
2022/05/21 01:22:40;;;;;;;4.20;3.80;;;;;;;;;;5100645;27;20193;-56
2022/05/21 01:25:06;;;;;;;4.13;3.83;;;;;;;;;;5095538;28;20201;-56
2022/05/21 01:27:33;;;;;;;4.23;3.93;;;;;;;;;;5104425;28;20235;-56
2022/05/21 01:30:00;;;;;;;3.93;3.63;;;;;;;;;;5089934;28;20176;-56
2022/05/21 01:32:29;;;;;;;3.70;3.40;;;;;;;;;;5092117;28;20255;-56
2022/05/21 01:34:56;;;;;;;4.17;3.87;;;;;;;;;;5093514;28;20198;-56
2022/05/21 01:37:23;;;;;;;3.90;3.50;;;;;;;;;;5087167;28;20633;-56
2022/05/21 01:39:49;;;;;;;3.90;3.60;;;;;;;;;;5097202;28;20174;-56
2022/05/21 01:42:15;;;;;;;3.97;3.67;;;;;;;;;;5101304;28;20191;-56
2022/05/21 01:44:42;;;;;;;4.00;3.70;;;;;;;;;;5101294;28;20189;-56
2022/05/21 01:47:09;;;;;;;3.83;3.53;;;;;;;;;;5102502;28;20218;-56
2022/05/21 01:49:35;;;;;;;5.33;3.83;;;;;;;;;;5098082;27;20188;-56
2022/05/21 01:52:02;;;;;;;4.53;3.77;;;;;;;;;;5100772;27;20508;-56
2022/05/21 01:54:28;;;;;;;4.10;3.17;;;;;;;;;;5098144;28;20575;-56
2022/05/21 01:56:54;;;;;;;4.07;3.67;;;;;;;;;;5104578;28;20334;-56
2022/05/21 01:59:20;;;;;;;4.90;3.50;;;;;;;;;;5101109;28;20187;-56
2022/05/21 02:01:48;;;;;;;3.60;3.30;;;;;;;;;;5104853;27;20315;-56
2022/05/21 02:04:14;;;;;;;5.63;3.60;;;;;;;;;;5099976;27;20787;-56
2022/05/21 02:06:40;;;;;;;3.70;3.40;;;;;;;;;;5092117;27;20190;-56
2022/05/21 02:09:06;;;;;;;3.70;3.37;;;;;;;;;;5098065;27;20183;-56
2022/05/21 02:11:33;;;;;;;3.30;3.00;;;;;;;;;;5106764;27;20187;-56
2022/05/21 02:13:59;;;;;;;3.80;3.20;;;;;;;;;;5094694;27;20198;-56
2022/05/21 02:16:25;;;;;;;3.47;3.17;;;;;;;;;;5108361;28;20246;-55
2022/05/21 02:18:51;;;;;;;3.50;3.20;;;;;;;;;;5098431;27;20297;-56
2022/05/21 02:21:18;;;;;;;3.50;3.30;;;;;;;;;;5090627;28;20710;-56
2022/05/21 02:23:47;;;;;;;3.90;3.30;;;;;;;;;;5098812;28;20191;-55
2022/05/21 02:26:16;;;;;;;3.20;3.00;;;;;;;;;;5104904;27;20187;-56
2022/05/21 02:28:42;;;;;;;4.87;3.40;;;;;;;;;;5076376;28;20371;-56
2022/05/21 02:31:08;;;;;;;4.30;3.27;;;;;;;;;;5077202;28;20207;-56
2022/05/21 02:33:34;;;;;;;2.40;2.30;;;;;;;;;;5052293;28;20879;-56
2022/05/21 02:36:04;;;;;;;3.03;2.73;;;;;;;;;;5084478;28;20619;-57
2022/05/21 02:41:15;;;;;;;3.37;3.10;;;;;;;;;;5086989;28;20684;-56
2022/05/21 02:43:43;;;;;;;3.30;2.93;;;;;;;;;;5075270;28;20663;-55
2022/05/21 02:46:09;;;;;;;3.10;2.90;;;;;;;;;;5068929;28;20180;-56
2022/05/21 02:48:35;;;;;;;3.97;3.50;;;;;;;;;;5074506;28;20642;-55
2022/05/21 02:51:02;;;;;;;3.87;2.90;;;;;;;;;;5070974;28;20195;-56
2022/05/21 02:53:28;;;;;;;3.17;2.93;;;;;;;;;;5074067;28;20193;-56
2022/05/21 02:55:55;;;;;;;;;;;;;;;;;;5105040;28;20038;-56
2022/05/21 02:58:21;;;;;;;;;;;;;;;;;;5080874;28;20003;-56
2022/05/21 03:00:47;;;;;;;;;;;;;;;;;;5079188;28;20004;-56
2022/05/21 03:03:13;;;;;;;;;;;;;;;;;;5060017;28;20346;-56
2022/05/21 03:05:39;;;;;;;4.97;2.90;;;;;;;;;;5088245;28;20278;-55
2022/05/21 03:10:54;;;;;;;4.93;3.33;;;;;;;;;;5082600;28;20206;-56
2022/05/21 03:13:20;;;;;;;3.23;3.03;;;;;;;;;;5057425;28;20575;-57
2022/05/21 03:15:47;;;;;;;3.60;3.30;;;;;;;;;;5094243;28;20176;-56
2022/05/21 03:18:17;;;;;;;4.10;3.70;;;;;;;;;;5077585;28;20258;-56
2022/05/21 03:20:43;;;;;;;3.77;3.47;;;;;;;;;;5075518;28;20180;-56
2022/05/21 03:23:10;;;;;;;9.20;8.53;;;;;;;;;;5074611;28;20192;-56
2022/05/21 03:25:37;;;;;;;4.33;3.93;;;;;;;;;;5096246;28;20248;-56
2022/05/21 03:28:03;;;;;;;4.97;4.13;;;;;;;;;;5094281;28;20241;-56
2022/05/21 03:30:31;;;;;;;4.47;4.07;;;;;;;;;;5085388;28;20233;-56
2022/05/21 03:32:57;;;;;;;5.87;4.60;;;;;;;;;;5074031;28;20175;-56
2022/05/21 03:35:27;;;;;;;5.20;4.70;;;;;;;;;;5104801;28;20479;-56
2022/05/21 03:37:53;;;;;;;7.80;4.80;;;;;;;;;;5077726;28;20188;-56
2022/05/21 03:40:26;;;;;;;10.90;10.00;;;;;;;;;;5100381;28;20284;-56
2022/05/21 03:42:52;;;;;;;6.50;5.90;;;;;;;;;;5088359;28;20237;-56
2022/05/21 03:45:18;;;;;;;6.87;5.10;;;;;;;;;;5118629;27;20594;-56
2022/05/21 03:47:45;;;;;;;5.87;5.03;;;;;;;;;;5100343;27;20745;-56
2022/05/21 03:50:14;;;;;;;6.97;5.90;;;;;;;;;;5100127;28;20175;-56
2022/05/21 03:52:40;;;;;;;6.67;4.37;;;;;;;;;;5094078;27;20251;-56
2022/05/21 03:55:07;;;;;;;6.90;5.23;;;;;;;;;;5093052;28;20225;-56
2022/05/21 03:57:33;;;;;;;8.67;5.20;;;;;;;;;;5082880;28;20292;-55
2022/05/21 03:59:59;;;;;;;8.97;5.47;;;;;;;;;;5090766;28;20194;-56
2022/05/21 04:02:26;;;;;;;8.30;7.50;;;;;;;;;;5094234;28;20185;-56
2022/05/21 04:04:53;;;;;;;8.50;5.57;;;;;;;;;;5087012;28;20282;-56
2022/05/21 04:07:20;;;;;;;12.77;11.57;;;;;;;;;;5099718;27;20242;-56
2022/05/21 04:09:46;;;;;;;6.73;5.03;;;;;;;;;;5072728;28;20220;-56
2022/05/21 04:12:12;;;;;;;7.03;6.17;;;;;;;;;;5072049;28;20190;-56
2022/05/21 04:14:38;;;;;;;7.57;5.13;;;;;;;;;;5098365;27;20664;-57
2022/05/21 04:17:09;;;;;;;7.40;4.73;;;;;;;;;;5087301;28;20538;-56
2022/05/21 04:19:35;;;;;;;8.83;5.30;;;;;;;;;;5108136;27;20182;-56
2022/05/21 04:22:04;;;;;;;7.70;5.63;;;;;;;;;;5091544;27;20190;-55
2022/05/21 04:24:30;;;;;;;8.47;5.67;;;;;;;;;;5099669;27;20185;-56
2022/05/21 04:26:56;;;;;;;8.13;4.73;;;;;;;;;;5078762;28;20647;-55
2022/05/21 04:29:22;;;;;;;8.87;7.93;;;;;;;;;;5086283;28;20189;-56
2022/05/21 04:31:49;;;;;;;7.60;5.67;;;;;;;;;;5099561;28;20823;-56
2022/05/21 04:34:15;;;;;;;9.67;5.70;;;;;;;;;;5075865;28;20643;-57
2022/05/21 04:36:41;;;;;;;8.17;6.23;;;;;;;;;;5088254;28;20172;-55
2022/05/21 04:39:07;;;;;;;10.33;6.00;;;;;;;;;;5077452;28;20301;-56
2022/05/21 04:41:33;;;;;;;7.67;6.10;;;;;;;;;;5087066;28;20642;-56
2022/05/21 04:43:59;;;;;;;5.93;4.80;;;;;;;;;;5096206;28;20206;-56
2022/05/21 04:46:26;;;;;;;9.77;6.47;;;;;;;;;;5097140;28;20184;-56
2022/05/21 04:48:52;;;;;;;7.23;5.63;;;;;;;;;;5070543;28;20347;-56
2022/05/21 04:51:19;;;;;;;6.00;5.03;;;;;;;;;;5091245;28;20187;-57
2022/05/21 04:53:45;;;;;;;5.67;5.00;;;;;;;;;;5080855;28;20300;-55
2022/05/21 04:56:12;;;;;;;7.13;5.10;;;;;;;;;;5082756;28;20175;-56
2022/05/21 04:58:38;;;;;;;7.17;5.83;;;;;;;;;;5099103;28;20529;-56
2022/05/21 05:01:05;;;;;;;8.10;4.63;;;;;;;;;;5069959;28;20329;-55
2022/05/21 05:03:31;;;;;;;6.70;6.07;;;;;;;;;;5094638;28;20206;-56
2022/05/21 05:05:57;;;;;;;7.53;5.13;;;;;;;;;;5073463;28;20179;-56
2022/05/21 05:08:24;;;;;;;6.50;5.70;;;;;;;;;;5099079;28;20199;-56
2022/05/21 05:10:51;;;;;;;6.70;4.90;;;;;;;;;;5067671;28;20185;-57
2022/05/21 05:13:18;;;;;;;6.23;4.10;;;;;;;;;;5074729;28;20216;-56
2022/05/21 05:15:45;;;;;;;7.93;5.83;;;;;;;;;;5072188;28;20174;-56
2022/05/21 05:18:12;;;;;;;4.97;4.07;;;;;;;;;;5074174;28;20187;-56
2022/05/21 05:20:39;;;;;;;7.83;4.97;;;;;;;;;;5108631;28;20204;-56
2022/05/21 05:23:05;;;;;;;6.10;4.17;;;;;;;;;;5088362;28;20188;-56
2022/05/21 05:25:32;;;;;;;5.70;4.40;;;;;;;;;;5082724;28;20653;-56
2022/05/21 05:28:02;;;;;;;5.53;4.40;;;;;;;;;;5104178;28;20226;-55
2022/05/21 05:30:28;;;;;;;5.43;4.63;;;;;;;;;;5096460;28;20634;-55
2022/05/21 05:32:54;;;;;;;7.17;4.47;;;;;;;;;;5076625;28;20235;-55
2022/05/21 05:35:21;;;;;;;5.70;4.80;;;;;;;;;;5081972;28;20187;-55
2022/05/21 05:37:47;;;;;;;7.10;6.40;;;;;;;;;;5091622;28;20184;-55
2022/05/21 05:40:15;;;;;;;4.47;3.97;;;;;;;;;;5072901;28;20180;-55
2022/05/21 05:42:42;;;;;;;4.57;3.67;;;;;;;;;;5084673;28;20212;-56
2022/05/21 05:45:09;;;;;;;8.07;4.50;;;;;;;;;;5103377;28;20274;-56
2022/05/21 05:47:35;;;;;;;4.50;4.07;;;;;;;;;;5076061;28;20312;-55
2022/05/21 05:50:01;;;;;;;7.73;4.53;;;;;;;;;;5098954;28;20620;-56
2022/05/21 05:52:28;;;;;;;5.73;5.10;;;;;;;;;;5092756;28;20176;-56
2022/05/21 05:54:54;;;;;;;6.03;4.30;;;;;;;;;;5095631;28;20181;-56
2022/05/21 05:57:20;;;;;;;7.17;5.30;;;;;;;;;;5075862;28;20214;-55
2022/05/21 05:59:50;;;;;;;6.43;4.57;;;;;;;;;;5086560;28;20187;-55
2022/05/21 06:05:03;;;;;;;9.37;4.80;;;;;;;;;;5100592;28;20189;-55
2022/05/21 06:07:30;;;;;;;5.83;5.07;;;;;;;;;;5086592;28;20203;-55
2022/05/21 06:10:01;;;;;;;6.53;4.70;;;;;;;;;;5087921;28;20300;-55
2022/05/21 06:12:27;;;;;;;7.47;4.67;;;;;;;;;;5081058;28;20626;-55
2022/05/21 06:14:53;;;;;;;7.57;4.73;;;;;;;;;;5078408;28;20171;-55
2022/05/21 06:17:19;;;;;;;6.67;4.83;;;;;;;;;;5088492;28;20184;-56
2022/05/21 06:19:45;;;;;;;5.50;4.63;;;;;;;;;;5093241;28;20203;-56
2022/05/21 06:22:11;;;;;;;6.70;5.70;;;;;;;;;;5093210;28;20593;-57
2022/05/21 06:24:38;;;;;;;6.97;5.53;;;;;;;;;;5100033;28;20184;-57
2022/05/21 06:27:07;;;;;;;9.63;5.90;;;;;;;;;;5095904;28;20223;-55
2022/05/21 06:29:35;;;;;;;7.13;5.57;;;;;;;;;;5071770;28;20187;-56
2022/05/21 06:32:03;;;;;;;9.10;5.10;;;;;;;;;;5078013;28;20606;-55
2022/05/21 06:34:30;;;;;;;8.47;5.60;;;;;;;;;;5113669;27;20206;-55
2022/05/21 06:36:56;;;;;;;8.37;5.40;;;;;;;;;;5107232;27;20455;-55
2022/05/21 06:39:22;;;;;;;9.57;6.00;;;;;;;;;;5083144;28;20437;-55
2022/05/21 06:41:48;;;;;;;10.27;5.70;;;;;;;;;;5087332;28;20490;-55
2022/05/21 06:44:14;;;;;;;7.70;5.60;;;;;;;;;;5084142;28;20232;-55
2022/05/21 06:46:40;;;;;;;6.73;4.80;;;;;;;;;;5099911;28;20183;-56
2022/05/21 06:49:07;;;;;;;9.17;5.57;;;;;;;;;;5105784;28;20227;-55
2022/05/21 06:51:33;;;;;;;9.03;5.53;;;;;;;;;;5085313;28;20336;-55
2022/05/21 06:53:59;;;;;;;7.67;5.87;;;;;;;;;;5102356;28;20278;-55
2022/05/21 06:56:25;;;;;;;12.80;6.07;;;;;;;;;;5079273;28;20401;-55
2022/05/21 06:58:51;;;;;;;8.60;5.73;;;;;;;;;;5082014;28;20187;-55
2022/05/21 07:01:18;;;;;;;7.47;5.13;;;;;;;;;;5094192;28;20187;-55
2022/05/21 07:03:44;;;;;;;6.53;5.40;;;;;;;;;;5073588;28;20244;-55
2022/05/21 07:08:58;;;;;;;9.37;5.57;;;;;;;;;;5095883;28;20210;-55
2022/05/21 07:11:24;;;;;;;10.13;5.83;;;;;;;;;;5071798;27;20234;-55
2022/05/21 07:13:50;;;;;;;7.33;5.10;;;;;;;;;;5073004;28;20183;-54
2022/05/21 07:16:16;;;;;;;6.63;5.10;;;;;;;;;;5098052;27;20266;-54
2022/05/21 07:18:42;;;;;;;7.47;5.30;;;;;;;;;;5089789;28;20179;-55
2022/05/21 07:21:10;;;;;;;11.10;5.77;;;;;;;;;;5108401;28;20567;-54
2022/05/21 07:23:37;;;;;;;7.20;5.13;;;;;;;;;;5107424;28;20155;-55
2022/05/21 07:26:12;;;;;;;10.33;5.33;;;;;;;;;;5087475;28;20658;-55
2022/05/21 07:28:38;;;;;;;9.60;5.77;;;;;;;;;;5077932;28;20279;-55
2022/05/21 07:31:05;;;;;;;7.70;5.83;;;;;;;;;;5099601;28;20180;-54
2022/05/21 07:33:31;;;;;;;11.77;6.20;;;;;;;;;;5082245;28;20286;-55
2022/05/21 07:35:58;;;;;;;8.77;6.30;;;;;;;;;;5121422;27;20552;-55
2022/05/21 07:38:24;;;;;;;10.67;7.20;;;;;;;;;;5081422;28;20175;-54
2022/05/21 07:40:52;;;;;;;7.83;5.73;;;;;;;;;;5102254;28;20614;-55
2022/05/21 07:43:24;;;;;;;9.17;5.70;;;;;;;;;;5072609;28;20180;-54
2022/05/21 07:45:51;;;;;;;12.83;6.67;;;;;;;;;;5102654;28;20198;-54
2022/05/21 07:48:18;;;;;;;9.10;6.70;;;;;;;;;;5100151;28;20238;-54
2022/05/21 07:51:07;;;;;;;13.47;7.03;;;;;;;;;;5078442;28;20199;-54
2022/05/21 07:53:35;;;;;;;10.47;6.60;;;;;;;;;;5089649;28;20641;-64
2022/05/21 07:56:02;;;;;;;7.63;6.20;;;;;;;;;;5092611;28;20657;-54
2022/05/21 07:58:31;;;;;;;10.47;6.40;;;;;;;;;;5105609;28;20564;-55
2022/05/21 08:00:58;;;;;;;8.03;6.13;;;;;;;;;;5089020;28;20213;-55
2022/05/21 08:03:24;;;;;;;7.87;6.03;;;;;;;;;;5070093;28;20736;-54
2022/05/21 08:05:51;;;;;;;11.83;6.73;;;;;;;;;;5073660;28;20212;-54
2022/05/21 08:08:17;;;;;;;9.67;6.90;;;;;;;;;;5069863;28;20635;-55
2022/05/21 08:10:44;;;;;;;10.73;8.20;;;;;;;;;;5101044;28;20248;-55
2022/05/21 08:13:11;;;;;;;12.30;9.00;;;;;;;;;;5074822;28;20174;-55
2022/05/21 08:15:37;;;;;;;13.80;8.27;;;;;;;;;;5082420;28;20207;-55
2022/05/21 08:18:04;;;;;;;15.23;8.33;;;;;;;;;;5085480;28;20551;-55
2022/05/21 08:20:34;;;;;;;13.50;7.70;;;;;;;;;;5098624;28;20234;-54
2022/05/21 08:28:29;;;;;;;17.90;8.10;;;;;;;;;;5092623;28;20230;-54
2022/05/21 08:30:56;;;;;;;13.93;8.30;;;;;;;;;;5072676;28;20255;-55
2022/05/21 08:33:22;;;;;;;9.57;7.30;;;;;;;;;;5089591;28;20304;-55
2022/05/21 08:35:48;;;;;;;9.87;7.77;;;;;;;;;;5091862;28;20260;-55
2022/05/21 08:38:15;;;;;;;11.13;8.03;;;;;;;;;;5074793;28;20209;-55
2022/05/21 08:40:44;;;;;;;9.57;7.27;;;;;;;;;;5078006;28;20448;-55
2022/05/21 08:43:19;;;;;;;12.57;7.23;;;;;;;;;;5100701;28;20234;-55
2022/05/21 08:46:04;;;;;;;13.70;7.57;;;;;;;;;;5079995;28;20182;-55
2022/05/21 08:48:34;;;;;;;9.17;6.67;;;;;;;;;;5100616;28;20682;-55
2022/05/21 08:51:04;;;;;;;11.53;8.67;;;;;;;;;;5069921;28;20182;-55
2022/05/21 08:53:30;;;;;;;13.13;8.07;;;;;;;;;;5082306;28;20191;-55
2022/05/21 08:55:59;;;;;;;9.83;7.53;;;;;;;;;;5097063;27;20211;-55
2022/05/21 08:58:31;;;;;;;10.53;7.60;;;;;;;;;;5074819;28;20211;-55
2022/05/21 09:00:57;;;;;;;10.57;7.10;;;;;;;;;;5090271;28;20186;-54
2022/05/21 09:03:24;;;;;;;11.80;7.77;;;;;;;;;;5076753;28;20284;-54
2022/05/21 09:06:08;;;;;;;9.53;7.00;;;;;;;;;;5088402;28;20495;-55
2022/05/21 09:08:53;;;;;;;12.23;7.07;;;;;;;;;;5079969;28;20206;-55
2022/05/21 09:11:25;;;;;;;10.93;6.50;;;;;;;;;;5092494;28;20179;-55
2022/05/21 09:14:01;;;;;;;11.17;7.13;;;;;;;;;;5079458;28;20206;-55
2022/05/21 09:19:12;;;;;;;15.00;8.37;;;;;;;;;;5093667;28;20194;-55
2022/05/21 09:21:43;;;;;;;12.30;7.27;;;;;;;;;;5103822;28;20195;-55
2022/05/21 09:24:10;;;;;;;9.97;6.67;;;;;;;;;;5072147;28;20279;-54
2022/05/21 09:26:52;;;;;;;11.17;6.73;;;;;;;;;;5097504;28;20552;-56
2022/05/21 09:29:28;;;;;;;15.07;6.73;;;;;;;;;;5082890;28;20784;-56
2022/05/21 09:31:55;;;;;;;8.93;6.70;;;;;;;;;;5078893;28;20176;-56
2022/05/21 09:34:29;;;;;;;11.17;6.60;;;;;;;;;;5077343;28;20183;-55
2022/05/21 09:36:56;;;;;;;11.97;6.50;;;;;;;;;;5072205;28;20175;-59
2022/05/21 09:39:30;;;;;;;11.27;7.20;;;;;;;;;;5077721;28;20205;-54
2022/05/21 09:42:09;;;;;;;14.13;7.33;;;;;;;;;;5081400;28;20203;-58
2022/05/21 09:47:24;;;;;;;15.00;7.60;;;;;;;;;;5080481;28;20218;-55
2022/05/21 09:50:05;;;;;;;14.90;6.90;;;;;;;;;;5094817;28;20172;-54
2022/05/21 09:52:32;;;;;;;11.97;6.80;;;;;;;;;;5096003;28;20270;-55
2022/05/21 09:54:58;;;;;;;12.07;8.47;;;;;;;;;;5092739;28;20191;-55
2022/05/21 09:57:43;;;;;;;11.17;7.77;;;;;;;;;;5094136;28;20182;-55
2022/05/21 10:00:25;;;;;;;9.67;7.17;;;;;;;;;;5097148;28;20201;-54
2022/05/21 10:02:58;;;;;;;14.23;6.77;;;;;;;;;;5086947;28;20191;-54
2022/05/21 10:05:26;;;;;;;9.03;6.30;;;;;;;;;;5091496;28;20197;-54
2022/05/21 10:11:07;;;;;;;11.03;6.50;;;;;;;;;;5098757;27;20212;-55
2022/05/21 10:13:39;;;;;;;11.90;6.83;;;;;;;;;;5096116;27;20313;-54
2022/05/21 10:16:15;;;;;;;9.20;5.83;;;;;;;;;;5084211;28;20577;-54
2022/05/21 10:18:41;;;;;;;7.90;6.17;;;;;;;;;;5105183;27;20193;-55
2022/05/21 10:21:30;;;;;;;10.93;6.87;;;;;;;;;;5103597;27;20187;-54
2022/05/21 10:23:59;;;;;;;10.23;6.13;;;;;;;;;;5085397;27;20557;-56
2022/05/21 10:26:39;;;;;;;11.33;6.03;;;;;;;;;;5100296;27;20221;-54
2022/05/21 10:29:27;;;;;;;8.87;6.13;;;;;;;;;;5073643;28;20208;-54
2022/05/21 10:31:53;;;;;;;9.50;6.30;;;;;;;;;;5072626;28;20559;-55
2022/05/21 10:34:37;;;;;;;10.73;6.07;;;;;;;;;;5058192;28;20186;-54
2022/05/21 10:37:16;;;;;;;7.80;5.80;;;;;;;;;;5088521;28;20175;-54
2022/05/21 10:39:48;;;;;;;7.97;6.53;;;;;;;;;;5085218;28;20606;-54
2022/05/21 10:42:38;;;;;;;8.63;5.57;;;;;;;;;;5076513;28;20203;-54
2022/05/21 10:45:23;;;;;;;8.80;6.37;;;;;;;;;;5056785;28;20183;-54
2022/05/21 10:48:01;;;;;;;8.60;5.50;;;;;;;;;;5073704;28;20287;-54
2022/05/21 10:50:33;;;;;;;9.87;5.90;;;;;;;;;;5083007;28;20544;-54
2022/05/21 10:53:11;;;;;;;9.00;5.83;;;;;;;;;;5064022;28;20270;-55
2022/05/21 10:55:47;;;;;;;9.40;5.33;;;;;;;;;;5073275;28;20183;-55
2022/05/21 10:58:35;;;;;;;7.57;5.03;;;;;;;;;;5065044;28;20634;-55
2022/05/21 11:01:05;;;;;;;9.87;5.40;;;;;;;;;;5055423;28;20184;-55
2022/05/21 11:03:34;;;;;;;5.77;4.87;;;;;;;;;;5079293;28;20191;-55
2022/05/21 11:06:06;;;;;;;9.87;6.43;;;;;;;;;;5081343;28;20180;-54
2022/05/21 11:08:51;;;;;;;7.30;5.07;;;;;;;;;;5073545;28;20201;-54
2022/05/21 11:11:37;;;;;;;6.93;5.13;;;;;;;;;;5079527;28;20182;-55
2022/05/21 11:14:04;;;;;;;6.83;5.23;;;;;;;;;;5078543;28;20188;-55
2022/05/21 11:16:43;;;;;;;6.73;4.70;;;;;;;;;;5088330;28;20164;-54
2022/05/21 11:19:19;;;;;;;9.53;5.30;;;;;;;;;;5063775;28;20315;-54
2022/05/21 11:21:50;;;;;;;8.97;5.43;;;;;;;;;;5081813;28;20606;-54
2022/05/21 11:24:23;;;;;;;7.47;5.73;;;;;;;;;;5062828;28;20189;-54
2022/05/21 11:26:58;;;;;;;8.90;4.93;;;;;;;;;;5080629;27;20220;-54
2022/05/21 11:29:37;;;;;;;5.77;4.43;;;;;;;;;;5099321;27;20229;-54
2022/05/21 11:38:06;;;;;;;6.80;4.90;;;;;;;;;;5056131;28;20201;-55
2022/05/21 11:40:51;;;;;;;10.77;5.03;;;;;;;;;;5105208;27;20278;-54
2022/05/21 11:43:19;;;;;;;8.00;5.30;;;;;;;;;;5098913;28;20503;-54
2022/05/21 11:46:01;;;;;;;9.57;5.33;;;;;;;;;;5101583;27;20207;-54
2022/05/21 11:48:28;;;;;;;8.03;5.13;;;;;;;;;;5094588;28;20199;-54
2022/05/21 11:51:24;;;;;;;8.70;5.03;;;;;;;;;;5072646;28;20180;-54
2022/05/21 11:53:51;;;;;;;10.33;5.40;;;;;;;;;;5082191;27;20195;-54
2022/05/21 11:56:17;;;;;;;8.53;5.47;;;;;;;;;;5101646;27;20183;-55
2022/05/21 11:58:59;;;;;;;9.57;5.70;;;;;;;;;;5093767;28;20246;-55
2022/05/21 12:01:40;;;;;;;7.40;6.53;;;;;;;;;;5081443;28;20187;-56
2022/05/21 12:04:26;;;;;;;8.17;7.37;;;;;;;;;;5077236;28;20799;-55
2022/05/21 12:06:53;;;;;;;11.10;5.73;;;;;;;;;;5076141;28;20398;-55
2022/05/21 12:09:27;;;;;;;8.67;5.77;;;;;;;;;;5096919;28;20271;-54
2022/05/21 12:12:13;;;;;;;11.17;6.27;;;;;;;;;;5104179;27;20759;-53
2022/05/21 12:14:52;;;;;;;11.80;5.97;;;;;;;;;;5095634;27;21521;-56
2022/05/21 12:17:37;;;;;;;7.97;5.13;;;;;;;;;;5081886;28;20190;-54
2022/05/21 12:20:06;;;;;;;12.43;5.73;;;;;;;;;;5099007;27;20184;-54
2022/05/21 12:22:34;;;;;;;8.83;6.10;;;;;;;;;;5077000;28;20183;-54
2022/05/21 12:25:00;;;;;;;11.07;5.70;;;;;;;;;;5096406;27;20252;-54
2022/05/21 12:27:27;;;;;;;11.07;5.93;;;;;;;;;;5080322;28;20709;-55
2022/05/21 12:30:04;;;;;;;7.33;5.40;;;;;;;;;;5097428;27;20711;-54
2022/05/21 12:32:33;;;;;;;9.70;5.43;;;;;;;;;;5074474;28;20179;-55
2022/05/21 12:35:11;;;;;;;7.07;5.07;;;;;;;;;;5097751;27;20201;-55
2022/05/21 12:38:04;;;;;;;8.43;6.00;;;;;;;;;;5070919;28;20183;-56
2022/05/21 12:40:39;;;;;;;9.03;5.60;;;;;;;;;;5095729;28;20250;-55
2022/05/21 12:43:10;;;;;;;6.73;5.83;;;;;;;;;;5094229;28;20542;-55
2022/05/21 12:45:43;;;;;;;13.07;5.50;;;;;;;;;;5091625;28;20373;-55
2022/05/21 12:48:09;;;;;;;7.80;4.87;;;;;;;;;;5095335;27;20195;-54
2022/05/21 12:50:36;;;;;;;11.53;5.07;;;;;;;;;;5104363;27;20244;-54
2022/05/21 12:53:04;;;;;;;8.37;5.67;;;;;;;;;;5095884;28;20261;-54
2022/05/21 12:55:34;;;;;;;9.30;6.43;;;;;;;;;;5070236;28;20186;-55
2022/05/21 12:58:12;;;;;;;8.07;5.60;;;;;;;;;;5105991;27;20178;-54
2022/05/21 13:00:46;;;;;;;13.63;5.67;;;;;;;;;;5070660;28;20194;-53
2022/05/21 13:03:12;;;;;;;9.97;5.57;;;;;;;;;;5078391;28;20702;-54
2022/05/21 13:05:47;;;;;;;7.10;4.50;;;;;;;;;;5095575;28;20672;-53
2022/05/21 13:08:13;;;;;;;7.43;4.70;;;;;;;;;;5096049;27;20202;-53
2022/05/21 13:10:40;;;;;;;8.73;5.07;;;;;;;;;;5094811;27;20607;-52
2022/05/21 13:13:08;;;;;;;8.50;5.03;;;;;;;;;;5087253;28;20201;-54
2022/05/21 13:15:38;;;;;;;7.53;5.07;;;;;;;;;;5095929;28;20270;-55
2022/05/21 13:18:07;;;;;;;6.27;4.27;;;;;;;;;;5093932;28;20634;-53
2022/05/21 13:20:46;;;;;;;9.43;5.10;;;;;;;;;;5090147;28;20187;-52
2022/05/21 13:23:33;;;;;;;8.13;4.93;;;;;;;;;;5092375;28;20186;-53
2022/05/21 13:25:59;;;;;;;7.97;5.23;;;;;;;;;;5094229;27;20182;-52
2022/05/21 13:28:26;;;;;;;6.43;4.70;;;;;;;;;;5075123;28;20340;-54
2022/05/21 13:30:53;;;;;;;9.67;5.13;;;;;;;;;;5092186;28;20277;-54
2022/05/21 13:33:33;;;;;;;8.30;5.27;;;;;;;;;;5065839;28;20230;-53
2022/05/21 13:36:01;;;;;;;16.87;5.53;;;;;;;;;;5067793;28;20203;-54
2022/05/21 13:38:31;;;;;;;8.43;5.30;;;;;;;;;;5088626;28;20203;-53
2022/05/21 13:40:57;;;;;;;6.43;5.13;;;;;;;;;;5100639;28;20195;-53
2022/05/21 14:03:45;;;;;;;7.97;5.70;;;;;;;;;;5108758;27;20540;-59
2022/05/21 14:06:12;;;;;;;;;;;;;;;;;;5091117;28;20413;-59
2022/05/21 14:08:38;;;;;;;;;;;;;;;;;;5086677;28;19909;-59
2022/05/21 14:11:04;;;;;;;;;;;;;;;;;;5088115;28;19944;-58
2022/05/21 14:13:30;;;;;;;;;;;;;;;;;;5094069;28;19947;-60
2022/05/21 14:15:56;;;;;;;;;;;;;;;;;;5095927;28;20032;-59
2022/05/21 14:18:22;;;;;;;;;;;;;;;;;;5091017;28;19912;-58
2022/05/21 14:20:48;;;;;;;;;;;;;;;;;;5100825;28;19989;-58
2022/05/21 14:23:25;;;;;;;13.07;8.63;;;;;;;;;;5088240;28;20442;-58
2022/05/21 14:25:51;;;;;;;8.50;5.68;;;;;;;;;;5093460;28;20492;-58
2022/05/21 14:28:17;;;;;;;8.52;5.90;;;;;;;;;;5097779;28;20496;-59
2022/05/21 14:30:45;;;;;;;9.45;5.93;;;;;;;;;;5079085;28;21131;-58
2022/05/21 14:33:13;;;;;;;7.47;5.85;;;;;;;;;;5091165;28;20453;-58
2022/05/21 14:35:39;;;;;;;8.10;5.85;;;;;;;;;;5096235;28;20515;-58
2022/05/21 14:38:05;;;;;;;9.45;6.18;;;;;;;;;;5099650;28;20465;-58
2022/05/21 14:40:43;;;;;;;8.45;6.38;;;;;;;;;;5075816;28;20403;-58
2022/05/21 14:43:13;;;;;;;8.57;6.57;;;;;;;;;;5083772;28;20375;-59
2022/05/21 14:45:39;;;;;;;8.57;6.10;;;;;;;;;;5095427;28;20402;-58
2022/05/21 14:48:05;;;;;;;9.00;5.68;;;;;;;;;;5088522;28;20973;-58
2022/05/21 14:53:23;;;;;;;8.70;4.90;;;;;;;;;;5083900;28;20390;-58
2022/05/21 14:55:50;;;;;;;8.40;5.95;;;;;;;;;;5087137;28;20472;-58
2022/05/21 14:58:17;;;;;;;7.10;5.43;;;;;;;;;;5074825;28;20400;-58
2022/05/21 15:00:43;;;;;;;7.57;5.13;;;;;;;;;;5085098;28;20748;-58
2022/05/21 15:03:09;;;;;;;7.43;5.05;;;;;;;;;;5060593;28;20915;-58
2022/05/21 15:05:36;;;;;;;8.35;5.40;;;;;;;;;;5074119;28;20410;-59
2022/05/21 15:08:02;;;;;;;8.00;6.15;;;;;;;;;;5065259;28;20394;-60
2022/05/21 15:10:29;;;;;;;7.90;5.63;;;;;;;;;;5072497;28;20423;-60
2022/05/21 15:12:55;;;;;;;7.22;5.35;;;;;;;;;;5072477;28;20653;-59
2022/05/21 15:15:21;;;;;;;8.35;5.90;;;;;;;;;;5074675;28;20395;-59
2022/05/21 15:17:47;;;;;;;8.97;5.90;;;;;;;;;;5072703;28;20804;-59
2022/05/21 15:20:14;;;;;;;8.27;6.35;;;;;;;;;;5074095;28;20403;-60
2022/05/21 15:22:41;;;;;;;10.52;6.80;;;;;;;;;;5044678;28;20496;-60
2022/05/21 15:25:08;;;;;;;10.15;6.28;;;;;;;;;;5073949;28;20427;-60
2022/05/21 15:27:35;;;;;;;7.97;5.93;;;;;;;;;;5078176;28;20411;-61
2022/05/21 15:30:01;;;;;;;10.98;6.20;;;;;;;;;;5072562;28;20893;-60
2022/05/21 15:32:27;;;;;;;8.05;5.63;;;;;;;;;;5073224;28;20477;-60
2022/05/21 15:34:53;;;;;;;10.05;6.75;;;;;;;;;;5080097;28;20386;-60
2022/05/21 15:37:21;;;;;;;9.15;6.65;;;;;;;;;;5071864;28;20499;-60
2022/05/21 15:39:48;;;;;;;7.45;6.68;;;;;;;;;;5081127;28;20722;-59
2022/05/21 15:42:16;;;;;;;8.95;5.60;;;;;;;;;;5072372;28;20405;-59
2022/05/21 15:44:43;;;;;;;6.53;5.50;;;;;;;;;;5057963;28;20216;-60
2022/05/21 15:47:12;;;;;;;7.33;5.50;;;;;;;;;;5051146;28;20662;-59
2022/05/21 15:49:44;;;;;;;8.83;5.93;;;;;;;;;;5062191;28;20276;-61
2022/05/21 15:52:12;;;;;;;7.70;6.20;;;;;;;;;;5062573;28;22165;-60